Time;durP1;ratioP1;P1;durP2;ratioP2;P2;SDS_P1;SDS_P2;PMS_P1;PMS_P2;Temp;Humidity;BMP_temperature;BMP_pressure;BME280_temperature;BME280_humidity;BME280_pressure;Samples;Min_cycle;Max_cycle;Signal;HPM_P1;HPM_P2
2022/06/28 00:00:09;;;;;;;11.53;10.83;;;;;;;18.48;77.10;93130.53;5003349;28;20213;-72
2022/06/28 00:02:35;;;;;;;11.07;10.37;;;;;;;18.44;77.47;93137.56;5003753;28;20227;-73
2022/06/28 00:05:00;;;;;;;11.50;10.80;;;;;;;18.41;76.21;93109.13;5003118;28;20193;-73
2022/06/28 00:07:26;;;;;;;12.60;11.70;;;;;;;18.30;76.37;93102.56;5002588;28;20309;-73
2022/06/28 00:09:51;;;;;;;12.20;11.40;;;;;;;18.41;77.05;93132.91;5004526;28;20214;-73
2022/06/28 00:12:17;;;;;;;10.23;9.40;;;;;;;18.41;76.92;93132.91;5000655;28;20225;-72
2022/06/28 00:17:26;;;;;;;11.17;10.47;;;;;;;18.32;77.86;93118.91;5003099;28;20243;-73
2022/06/28 00:19:52;;;;;;;11.07;10.17;;;;;;;18.35;78.41;93132.25;5005700;28;20197;-72
2022/06/28 00:22:17;;;;;;;10.83;9.97;;;;;;;18.20;79.35;93113.44;5002796;28;20221;-73
2022/06/28 00:24:43;;;;;;;10.90;10.30;;;;;;;18.19;79.51;93133.03;5006073;28;20223;-74
2022/06/28 00:27:08;;;;;;;11.00;10.30;;;;;;;18.14;79.81;93136.63;5001238;28;20235;-73
2022/06/28 00:29:33;;;;;;;10.30;9.70;;;;;;;18.10;79.85;93140.22;5003444;28;20189;-73
2022/06/28 00:31:59;;;;;;;11.53;10.40;;;;;;;18.10;79.64;93124.34;5001972;28;20231;-73
2022/06/28 00:34:24;;;;;;;10.47;9.77;;;;;;;17.90;79.72;93104.59;5003518;28;20219;-72
2022/06/28 00:36:50;;;;;;;10.43;9.73;;;;;;;18.02;79.99;93130.41;5004101;28;20233;-73
2022/06/28 00:39:15;;;;;;;9.97;9.27;;;;;;;18.09;80.23;93131.50;4984405;28;20195;-72
2022/06/28 00:41:42;;;;;;;9.97;9.40;;;;;;;17.93;81.28;93127.75;5001690;28;20229;-73
2022/06/28 00:44:11;;;;;;;11.27;10.57;;;;;;;17.88;81.59;93127.13;5001122;28;20184;-73
2022/06/28 00:46:36;;;;;;;11.47;10.67;;;;;;;17.91;81.35;93137.09;5003060;28;20236;-74
2022/06/28 00:49:02;;;;;;;11.00;10.30;;;;;;;17.96;80.73;93136.94;5002133;28;20856;-73
2022/06/28 00:51:28;;;;;;;11.47;10.77;;;;;;;17.92;80.10;93128.84;5002987;28;20221;-73
2022/06/28 00:53:54;;;;;;;12.20;11.30;;;;;;;17.87;79.98;93130.88;5003353;28;20192;-73
2022/06/28 00:56:20;;;;;;;12.17;11.27;;;;;;;17.76;80.48;93113.78;5003948;28;20225;-72
2022/06/28 00:58:46;;;;;;;12.10;11.30;;;;;;;17.95;80.02;93132.72;5004463;28;20199;-73
2022/06/28 01:01:11;;;;;;;11.57;10.60;;;;;;;18.06;79.46;93132.13;5001718;28;20652;-72
2022/06/28 01:03:37;;;;;;;11.63;10.87;;;;;;;17.96;80.00;93126.38;5001053;28;20205;-73
2022/06/28 01:06:02;;;;;;;12.30;11.50;;;;;;;17.99;80.28;93128.38;4998253;28;20229;-72
2022/06/28 01:08:28;;;;;;;11.13;10.43;;;;;;;17.71;82.44;93127.91;5002033;28;20316;-72
2022/06/28 01:10:53;;;;;;;10.17;9.37;;;;;;;17.69;82.65;93122.16;5000746;28;20281;-74
2022/06/28 01:13:19;;;;;;;12.17;11.30;;;;;;;17.73;82.27;93135.53;5001942;28;20197;-74
2022/06/28 01:15:44;;;;;;;12.17;11.17;;;;;;;17.57;82.86;93114.81;5002834;28;20233;-72
2022/06/28 01:18:11;;;;;;;11.90;11.10;;;;;;;17.70;82.21;93121.06;5002351;28;20193;-73
2022/06/28 01:20:39;;;;;;;11.33;10.53;;;;;;;17.51;82.38;93116.06;5002100;28;20211;-72
2022/06/28 01:23:05;;;;;;;11.43;10.67;;;;;;;17.74;81.69;93124.66;4991148;28;20274;-74
2022/06/28 01:25:31;;;;;;;12.00;11.30;;;;;;;17.59;82.07;93120.59;5000547;28;20188;-72
2022/06/28 01:27:56;;;;;;;12.50;11.37;;;;;;;17.63;81.81;93120.75;5002018;28;20200;-73
2022/06/28 01:30:22;;;;;;;11.60;10.70;;;;;;;17.66;81.97;93125.41;5003870;28;20199;-72
2022/06/28 01:32:48;;;;;;;11.30;10.60;;;;;;;17.77;81.64;93125.88;5004407;28;20184;-73
2022/06/28 01:35:14;;;;;;;11.23;10.23;;;;;;;17.54;81.43;93099.59;5001848;28;20196;-73
2022/06/28 01:37:40;;;;;;;11.83;11.03;;;;;;;17.55;81.98;93109.09;5001094;28;20228;-73
2022/06/28 01:40:07;;;;;;;10.50;9.90;;;;;;;17.54;82.08;93112.81;5001460;28;20286;-72
2022/06/28 01:42:33;;;;;;;10.47;9.83;;;;;;;17.45;82.42;93109.38;5001842;28;20248;-72
2022/06/28 01:44:59;;;;;;;11.37;10.37;;;;;;;17.45;82.46;93122.56;5001406;28;20222;-72
2022/06/28 01:47:27;;;;;;;11.73;10.87;;;;;;;17.45;82.37;93119.94;5003404;28;20208;-73
2022/06/28 01:49:53;;;;;;;11.93;11.10;;;;;;;17.41;81.10;93121.63;5002781;28;20896;-72
2022/06/28 01:52:19;;;;;;;10.67;9.43;;;;;;;17.47;80.69;93122.25;5000228;28;20242;-72
2022/06/28 01:54:44;;;;;;;10.90;9.90;;;;;;;17.53;79.97;93115.75;5000291;28;20196;-72
2022/06/28 01:57:10;;;;;;;10.20;9.60;;;;;;;17.50;81.39;93106.59;5002355;28;20238;-73
2022/06/28 01:59:37;;;;;;;11.13;10.47;;;;;;;17.61;80.49;93101.78;5001719;28;20181;-71
2022/06/28 02:02:03;;;;;;;10.27;9.67;;;;;;;17.53;81.58;93107.81;5000189;28;20223;-73
2022/06/28 02:04:29;;;;;;;11.80;11.10;;;;;;;17.56;81.61;93099.28;5000104;28;20784;-72
2022/06/28 02:06:56;;;;;;;11.53;10.63;;;;;;;17.50;81.51;93103.94;5001246;28;20246;-72
2022/06/28 02:09:22;;;;;;;11.03;10.43;;;;;;;17.55;81.06;93089.81;5002053;28;20196;-72
2022/06/28 02:11:48;;;;;;;11.50;10.67;;;;;;;17.51;81.54;93096.78;4999483;28;20213;-72
2022/06/28 02:14:14;;;;;;;9.97;9.37;;;;;;;17.97;73.60;93110.19;5001510;28;20198;-72
2022/06/28 02:16:39;;;;;;;10.37;9.70;;;;;;;17.95;76.13;93108.94;5004883;28;20231;-73
2022/06/28 02:19:05;;;;;;;9.83;9.23;;;;;;;17.85;77.58;93107.41;5003750;28;20230;-73
2022/06/28 02:21:39;;;;;;;10.23;9.60;;;;;;;17.88;78.46;93117.34;5000414;28;20219;-73
2022/06/28 02:24:06;;;;;;;8.93;8.53;;;;;;;17.55;79.50;93098.53;5002498;28;20213;-73
2022/06/28 02:26:32;;;;;;;10.07;9.50;;;;;;;17.50;80.31;93116.38;4998984;28;20227;-73
2022/06/28 02:28:59;;;;;;;10.57;9.87;;;;;;;17.53;79.61;93103.34;5000938;28;20200;-72
2022/06/28 02:31:24;;;;;;;10.17;9.60;;;;;;;17.60;80.26;93118.72;5001423;28;20242;-72
2022/06/28 02:33:50;;;;;;;10.30;9.70;;;;;;;17.45;81.52;93119.94;5002085;28;20183;-73
2022/06/28 02:41:45;;;;;;;10.70;10.03;;;;;;;17.38;82.29;93121.44;4999727;28;20299;-72
2022/06/28 02:44:10;;;;;;;11.40;10.47;;;;;;;17.33;83.26;93127.66;4999399;28;20184;-72
2022/06/28 02:46:36;;;;;;;9.80;9.20;;;;;;;17.35;82.94;93129.97;5001405;28;20232;-72
2022/06/28 02:49:02;;;;;;;10.23;9.43;;;;;;;17.46;82.46;93121.47;5002429;28;20196;-72
2022/06/28 02:51:27;;;;;;;9.87;9.13;;;;;;;17.29;82.66;93104.81;5000484;28;20228;-72
2022/06/28 02:53:53;;;;;;;11.17;10.17;;;;;;;17.36;82.94;93115.69;5001363;28;20306;-74
2022/06/28 02:56:19;;;;;;;11.13;10.33;;;;;;;17.37;83.01;93118.00;4997646;28;20317;-73
2022/06/28 02:58:45;;;;;;;10.83;10.13;;;;;;;17.42;82.58;93109.97;5001467;28;20225;-74
2022/06/28 03:01:10;;;;;;;10.43;9.27;;;;;;;17.62;81.42;93115.78;5002576;28;20239;-73
2022/06/28 03:03:36;;;;;;;10.40;9.63;;;;;;;17.70;79.92;93117.66;5000343;28;20191;-72
2022/06/28 03:06:02;;;;;;;11.03;10.43;;;;;;;17.89;78.90;93099.63;4999364;28;20247;-73
2022/06/28 03:08:28;;;;;;;10.00;9.40;;;;;;;18.32;76.71;93108.31;5000273;28;20234;-72
2022/06/28 03:10:53;;;;;;;10.80;10.10;;;;;;;18.94;74.70;93112.84;5001000;28;20227;-72
2022/06/28 03:13:18;;;;;;;10.60;9.83;;;;;;;19.72;71.83;93115.91;5005541;28;20228;-72
2022/06/28 03:15:44;;;;;;;9.77;9.10;;;;;;;20.43;68.36;93110.22;5005236;28;20232;-72
2022/06/28 03:18:09;;;;;;;9.37;8.80;;;;;;;21.28;65.06;93099.78;5006271;28;20219;-73
2022/06/28 03:20:35;;;;;;;9.83;9.23;;;;;;;22.67;60.83;93115.72;5003038;28;20232;-73
2022/06/28 03:23:00;;;;;;;11.23;10.23;;;;;;;23.30;57.84;93105.94;5005562;28;20195;-73
2022/06/28 03:25:26;;;;;;;9.55;9.05;;;;;;;23.46;57.40;93120.00;5001622;28;20195;-73
2022/06/28 03:27:51;;;;;;;10.20;9.45;;;;;;;23.13;57.99;93107.00;5004614;28;20191;-73
2022/06/28 03:30:17;;;;;;;10.30;9.52;;;;;;;22.72;59.66;93118.13;5002313;28;20188;-72
2022/06/28 03:32:43;;;;;;;10.05;9.30;;;;;;;22.39;61.13;93106.94;5005677;28;20236;-73
2022/06/28 03:35:09;;;;;;;9.68;9.07;;;;;;;22.40;61.98;93110.38;5007035;28;20183;-73
2022/06/28 03:37:35;;;;;;;9.80;9.20;;;;;;;22.62;60.71;93107.97;5007252;28;20250;-73
2022/06/28 03:40:01;;;;;;;9.65;9.05;;;;;;;24.01;56.04;93117.09;5006753;28;20197;-72
2022/06/28 03:42:27;;;;;;;10.00;9.40;;;;;;;23.91;56.55;93117.59;5006251;28;20217;-72
2022/06/28 03:44:52;;;;;;;9.35;8.57;;;;;;;24.50;55.12;93109.34;5005940;28;20202;-73
2022/06/28 03:47:18;;;;;;;9.68;9.07;;;;;;;23.85;56.51;93121.66;5006308;28;20232;-73
2022/06/28 03:49:43;;;;;;;10.52;8.77;;;;;;;22.91;59.88;93126.22;5006342;28;20254;-73
2022/06/28 03:52:09;;;;;;;9.27;8.68;;;;;;;23.45;58.34;93134.47;5006187;28;20221;-74
2022/06/28 03:54:34;;;;;;;9.02;8.48;;;;;;;23.12;60.17;93134.75;5007300;28;20249;-73
2022/06/28 03:57:00;;;;;;;9.57;9.07;;;;;;;23.38;58.76;93126.28;5003810;28;20253;-73
2022/06/28 03:59:25;;;;;;;10.75;10.05;;;;;;;22.37;60.61;93130.44;5006107;28;20205;-73
2022/06/28 04:01:51;;;;;;;10.70;10.00;;;;;;;23.88;57.52;93152.97;5006196;28;20319;-69
2022/06/28 04:04:16;;;;;;;10.63;9.93;;;;;;;23.24;58.23;93139.22;5004009;28;20194;-69
2022/06/28 04:06:42;;;;;;;11.10;10.32;;;;;;;22.95;60.48;93152.94;5003502;28;20316;-70
2022/06/28 04:09:07;;;;;;;12.90;11.90;;;;;;;22.50;61.97;93150.59;5001938;28;20191;-69
2022/06/28 04:11:32;;;;;;;13.88;12.55;;;;;;;22.45;62.68;93145.50;5002051;28;20270;-73
2022/06/28 04:13:58;;;;;;;11.77;10.77;;;;;;;23.06;60.32;93154.78;5005493;28;20210;-73
2022/06/28 04:16:23;;;;;;;12.77;11.73;;;;;;;22.91;60.56;93158.19;5004215;28;20225;-69
2022/06/28 04:18:49;;;;;;;13.13;12.13;;;;;;;22.29;63.59;93163.28;5003746;28;20212;-70
2022/06/28 04:21:17;;;;;;;12.82;11.82;;;;;;;21.79;65.84;93144.31;5002368;28;20260;-70
2022/06/28 04:23:43;;;;;;;13.27;12.00;;;;;;;22.09;65.33;93154.34;5002576;28;20234;-69
2022/06/28 04:26:08;;;;;;;13.75;12.57;;;;;;;21.96;66.21;93166.09;5001334;28;20230;-70
2022/06/28 04:28:34;;;;;;;14.88;12.73;;;;;;;21.55;67.65;93170.88;5005331;28;20181;-71
2022/06/28 04:31:00;;;;;;;14.77;13.48;;;;;;;21.94;65.89;93168.34;5000966;28;20233;-70
2022/06/28 04:33:26;;;;;;;13.40;12.30;;;;;;;21.86;65.81;93168.44;5003208;28;20194;-72
2022/06/28 04:35:51;;;;;;;13.93;12.82;;;;;;;22.05;65.49;93131.44;5003412;28;20229;-70
2022/06/28 04:38:17;;;;;;;13.68;12.52;;;;;;;24.75;56.84;93174.72;5005989;28;20206;-74
2022/06/28 04:40:43;;;;;;;12.85;11.85;;;;;;;25.29;55.03;93180.72;5001740;28;20227;-70
2022/06/28 04:43:08;;;;;;;11.93;11.02;;;;;;;24.64;56.17;93147.00;5004926;28;20189;-73
2022/06/28 04:45:34;;;;;;;12.48;11.43;;;;;;;24.30;58.35;93174.50;5003963;28;20186;-72
2022/06/28 04:48:00;;;;;;;12.02;11.05;;;;;;;22.86;61.78;93155.78;5002818;28;20194;-72
2022/06/28 04:50:25;;;;;;;12.00;11.00;;;;;;;22.70;63.08;93181.59;5001478;28;20193;-73
2022/06/28 04:52:51;;;;;;;13.60;12.30;;;;;;;22.48;63.18;93150.13;5002953;28;20195;-73
2022/06/28 04:55:17;;;;;;;12.70;11.70;;;;;;;22.07;65.60;93156.56;5005559;28;20376;-72
2022/06/28 04:57:43;;;;;;;13.20;12.13;;;;;;;22.58;64.86;93172.88;5007210;28;20228;-72
2022/06/28 05:00:10;;;;;;;12.05;11.20;;;;;;;22.54;65.61;93178.09;5003759;28;20265;-70
2022/06/28 05:02:36;;;;;;;15.05;13.75;;;;;;;21.23;70.47;93150.50;5004716;28;20225;-72
2022/06/28 05:05:06;;;;;;;15.75;13.13;;;;;;;21.35;70.59;93156.59;5006099;28;20233;-73
2022/06/28 05:07:34;;;;;;;15.00;13.75;;;;;;;23.25;64.01;93183.47;5006382;28;20301;-72
2022/06/28 05:10:00;;;;;;;13.23;12.10;;;;;;;23.97;61.52;93171.50;4999810;28;20275;-73
2022/06/28 05:12:26;;;;;;;14.38;13.15;;;;;;;23.78;62.05;93188.19;5002231;28;20237;-72
2022/06/28 05:14:52;;;;;;;14.57;13.30;;;;;;;26.69;53.40;93184.84;5005861;28;20211;-73
2022/06/28 05:17:17;;;;;;;13.80;12.60;;;;;;;29.13;46.54;93194.56;5000780;28;20217;-75
2022/06/28 05:19:43;;;;;;;12.60;11.45;;;;;;;29.29;44.37;93198.44;5004730;28;20179;-74
2022/06/28 05:22:09;;;;;;;13.63;12.32;;;;;;;31.34;40.18;93188.28;5005060;28;20236;-76
2022/06/28 05:24:35;;;;;;;12.70;11.73;;;;;;;32.47;37.00;93186.34;5003587;28;20194;-74
2022/06/28 05:27:01;;;;;;;12.65;11.65;;;;;;;30.17;41.17;93193.19;5002878;28;20238;-73
2022/06/28 05:29:27;;;;;;;13.57;11.63;;;;;;;26.51;51.30;93178.44;5003037;28;20227;-73
2022/06/28 05:31:52;;;;;;;13.95;12.20;;;;;;;25.89;53.68;93174.47;5000832;28;20626;-72
2022/06/28 05:34:17;;;;;;;13.50;12.32;;;;;;;25.38;55.03;93175.94;5002287;28;20187;-74
2022/06/28 05:36:43;;;;;;;13.93;12.75;;;;;;;25.52;54.92;93176.16;5001830;28;20239;-73
2022/06/28 05:39:09;;;;;;;13.25;12.25;;;;;;;28.75;47.04;93182.47;5000949;28;20191;-74
2022/06/28 05:41:34;;;;;;;12.43;11.43;;;;;;;31.60;40.07;93199.31;5003595;28;20231;-74
2022/06/28 05:44:00;;;;;;;13.15;11.68;;;;;;;34.48;33.46;93206.97;5004440;28;20213;-74
2022/06/28 05:46:26;;;;;;;13.70;12.40;;;;;;;36.06;30.71;93209.28;5003066;28;20227;-73
2022/06/28 05:48:52;;;;;;;11.50;10.30;;;;;;;37.05;28.72;93215.75;5004735;28;20722;-73
2022/06/28 05:51:18;;;;;;;10.57;9.77;;;;;;;38.15;27.04;93225.84;5001038;28;20236;-71
2022/06/28 05:53:43;;;;;;;11.32;10.13;;;;;;;35.75;30.42;93223.53;5001358;28;20195;-74
2022/06/28 05:56:09;;;;;;;11.57;10.57;;;;;;;38.70;26.75;93232.66;5002130;28;20243;-72
2022/06/28 05:58:34;;;;;;;11.93;10.95;;;;;;;38.00;27.29;93235.63;5001575;28;20191;-72
2022/06/28 06:01:00;;;;;;;12.82;11.45;;;;;;;39.41;25.26;93244.69;5000085;28;20258;-74
2022/06/28 06:03:25;;;;;;;12.68;10.45;;;;;;;38.81;26.20;93240.50;4999617;28;20176;-75
2022/06/28 06:05:51;;;;;;;13.05;11.75;;;;;;;38.24;26.58;93247.78;4999245;28;20247;-75
2022/06/28 06:08:16;;;;;;;15.68;11.68;;;;;;;39.31;25.85;93248.56;5001025;28;20899;-73
2022/06/28 06:10:42;;;;;;;13.00;11.85;;;;;;;40.20;24.57;93239.41;5000439;28;20230;-75
2022/06/28 06:13:07;;;;;;;12.30;11.13;;;;;;;40.92;23.52;93242.38;4990788;28;20252;-75
2022/06/28 06:15:34;;;;;;;20.90;16.77;;;;;;;39.01;25.64;93246.50;4999339;28;20216;-74
2022/06/28 06:18:00;;;;;;;12.52;11.35;;;;;;;40.16;24.96;93243.50;5002661;28;20298;-75
2022/06/28 06:20:25;;;;;;;14.18;12.85;;;;;;;36.35;28.84;93222.97;5001163;28;20218;-74
2022/06/28 06:22:51;;;;;;;18.40;12.38;;;;;;;40.09;24.59;93235.53;5002779;28;20199;-74
2022/06/28 06:25:16;;;;;;;13.45;11.63;;;;;;;40.03;24.38;93238.13;5003931;28;20192;-72
2022/06/28 06:27:43;;;;;;;11.75;10.52;;;;;;;39.82;25.02;93222.47;5001306;28;20228;-73
2022/06/28 06:30:09;;;;;;;12.65;11.55;;;;;;;35.44;29.92;93204.78;5003469;28;20217;-73
2022/06/28 06:32:34;;;;;;;14.30;11.23;;;;;;;36.32;29.37;93207.50;5002037;28;20240;-71
2022/06/28 06:35:00;;;;;;;11.95;10.05;;;;;;;39.53;25.63;93227.47;5001180;28;20192;-71
2022/06/28 06:37:26;;;;;;;11.25;10.00;;;;;;;41.19;23.06;93215.00;4999507;28;20227;-71
2022/06/28 06:39:51;;;;;;;10.77;9.65;;;;;;;41.72;22.29;93231.88;5001107;28;20196;-72
2022/06/28 06:42:17;;;;;;;15.45;9.82;;;;;;;39.70;24.35;93210.41;5000164;28;20231;-71
2022/06/28 06:44:42;;;;;;;11.70;10.38;;;;;;;36.05;28.47;93198.81;5001437;28;20187;-72
2022/06/28 06:47:07;;;;;;;14.63;10.55;;;;;;;34.75;31.14;93182.44;5000172;28;20335;-72
2022/06/28 06:49:33;;;;;;;11.80;10.77;;;;;;;37.36;28.70;93181.44;5001520;28;20256;-73
2022/06/28 06:51:58;;;;;;;10.90;9.98;;;;;;;36.50;28.93;93175.19;5006334;28;20239;-72
2022/06/28 06:54:24;;;;;;;11.98;10.65;;;;;;;35.63;29.40;93184.97;5004534;28;20180;-73
2022/06/28 06:56:49;;;;;;;10.48;9.57;;;;;;;32.72;32.94;93168.69;5000539;28;20231;-73
2022/06/28 06:59:16;;;;;;;11.40;10.48;;;;;;;30.31;39.56;93154.69;5002357;28;20252;-71
2022/06/28 07:01:42;;;;;;;15.02;12.40;;;;;;;28.34;46.86;93148.84;5002188;28;20232;-74
2022/06/28 07:04:08;;;;;;;12.18;10.55;;;;;;;27.20;50.78;93150.16;5006161;28;20203;-69
2022/06/28 07:06:34;;;;;;;20.65;12.07;;;;;;;26.97;50.62;93152.22;5003630;28;20219;-72
2022/06/28 07:09:00;;;;;;;13.68;12.35;;;;;;;27.52;50.16;93157.41;5005979;28;20208;-76
2022/06/28 07:11:25;;;;;;;11.65;10.65;;;;;;;27.49;47.05;93152.00;5002968;28;20705;-70
2022/06/28 07:13:51;;;;;;;14.80;12.15;;;;;;;27.15;48.78;93153.19;5004496;28;20286;-74
2022/06/28 07:16:16;;;;;;;13.18;11.60;;;;;;;26.68;48.99;93151.13;5000040;28;20220;-75
2022/06/28 07:18:42;;;;;;;12.07;11.00;;;;;;;25.90;52.13;93137.78;5005982;28;20202;-72
2022/06/28 07:21:08;;;;;;;12.95;11.57;;;;;;;25.67;51.26;93132.47;4983821;28;20236;-73
2022/06/28 07:23:34;;;;;;;12.95;11.80;;;;;;;26.19;49.81;93145.13;4990187;28;20188;-73
2022/06/28 07:25:59;;;;;;;11.60;10.75;;;;;;;26.15;48.41;93155.75;4988538;28;20724;-73
2022/06/28 07:28:24;;;;;;;12.63;11.45;;;;;;;26.19;47.17;93150.47;4985870;28;20191;-73
2022/06/28 07:30:50;;;;;;;12.27;11.30;;;;;;;25.68;50.19;93135.91;4989773;28;20239;-75
2022/06/28 07:33:15;;;;;;;10.95;10.05;;;;;;;26.17;47.67;93155.41;5005183;28;20196;-69
2022/06/28 07:35:41;;;;;;;11.55;10.52;;;;;;;25.77;47.78;93133.75;5003368;28;20235;-69
2022/06/28 07:38:06;;;;;;;11.80;10.90;;;;;;;26.04;49.16;93170.91;5000248;28;20259;-71
2022/06/28 07:40:32;;;;;;;10.95;10.10;;;;;;;26.32;49.54;93149.88;5002463;28;20215;-73
2022/06/28 07:42:57;;;;;;;11.07;10.27;;;;;;;26.05;50.38;93160.97;4985114;28;20219;-74
2022/06/28 07:45:23;;;;;;;11.63;10.73;;;;;;;26.17;47.74;93137.44;5003323;28;20184;-72
2022/06/28 07:47:48;;;;;;;12.95;11.65;;;;;;;26.00;50.23;93156.72;5001582;28;20198;-70
2022/06/28 07:53:01;;;;;;;12.13;11.05;;;;;;;25.77;52.68;93171.22;5003367;28;20218;-71
2022/06/28 07:55:27;;;;;;;11.95;10.98;;;;;;;26.23;48.43;93162.75;5005202;28;20207;-72
2022/06/28 07:57:53;;;;;;;11.80;10.80;;;;;;;26.25;48.95;93165.09;4987791;28;20501;-72
2022/06/28 08:00:21;;;;;;;11.48;10.23;;;;;;;26.48;47.87;93174.59;5003953;28;20228;-72
2022/06/28 08:02:46;;;;;;;10.88;10.07;;;;;;;26.33;48.59;93146.09;4981245;28;20221;-74
2022/06/28 08:05:12;;;;;;;11.18;10.48;;;;;;;26.56;48.79;93154.00;4986604;28;20185;-70
2022/06/28 08:07:37;;;;;;;9.90;9.27;;;;;;;26.36;49.06;93152.59;4983124;28;20238;-72
2022/06/28 08:10:03;;;;;;;11.13;10.32;;;;;;;26.66;47.80;93154.16;4985864;28;20276;-71
2022/06/28 08:12:29;;;;;;;11.65;10.70;;;;;;;26.87;49.08;93147.50;4999436;28;20215;-70
2022/06/28 08:14:54;;;;;;;10.40;9.52;;;;;;;26.46;47.70;93144.72;4983316;28;20212;-70
2022/06/28 08:17:19;;;;;;;10.95;9.73;;;;;;;26.30;48.85;93132.66;4984045;28;20224;-71
2022/06/28 08:19:45;;;;;;;10.68;9.80;;;;;;;26.36;51.52;93147.25;4985545;28;20247;-71
2022/06/28 08:22:10;;;;;;;9.90;8.95;;;;;;;26.63;46.84;93143.41;4986429;28;20230;-72
2022/06/28 08:24:36;;;;;;;9.60;8.80;;;;;;;26.94;47.00;93150.28;4986031;28;20192;-71
2022/06/28 08:27:01;;;;;;;9.20;8.35;;;;;;;27.02;48.06;93149.22;4982026;28;20228;-70
2022/06/28 08:29:27;;;;;;;9.85;9.18;;;;;;;27.38;44.09;93151.16;4984072;28;20196;-71
2022/06/28 08:31:52;;;;;;;9.70;9.10;;;;;;;26.87;47.01;93145.59;4983387;28;20232;-71
2022/06/28 08:34:18;;;;;;;10.35;9.38;;;;;;;27.22;46.51;93147.91;4983568;28;20221;-71
2022/06/28 08:36:43;;;;;;;9.90;9.20;;;;;;;27.35;43.72;93141.16;4984328;28;20266;-70
2022/06/28 08:39:09;;;;;;;9.10;8.60;;;;;;;27.35;44.69;93163.38;4984757;28;20259;-70
2022/06/28 08:41:35;;;;;;;10.48;9.57;;;;;;;27.06;46.73;93158.84;4980944;28;20236;-70
2022/06/28 08:44:00;;;;;;;9.25;8.68;;;;;;;27.34;44.29;93143.06;4985793;28;20220;-69
2022/06/28 08:46:26;;;;;;;9.88;9.18;;;;;;;27.66;44.58;93164.81;4982793;28;20232;-69
2022/06/28 08:48:55;;;;;;;9.90;9.10;;;;;;;27.88;45.06;93164.63;4981304;28;20184;-69
2022/06/28 08:51:29;;;;;;;10.48;9.65;;;;;;;28.17;42.19;93165.63;4981740;28;20233;-69
2022/06/28 08:53:58;;;;;;;8.80;8.30;;;;;;;27.93;43.52;93166.19;4986495;28;20199;-71
2022/06/28 08:56:24;;;;;;;11.27;10.38;;;;;;;27.21;46.14;93157.09;4979705;28;20780;-71
2022/06/28 08:58:50;;;;;;;11.40;10.35;;;;;;;27.49;42.84;93157.38;4983553;28;20185;-71
2022/06/28 09:01:15;;;;;;;10.27;9.57;;;;;;;27.25;45.15;93155.22;4979814;28;20251;-70
2022/06/28 09:03:41;;;;;;;9.43;8.82;;;;;;;26.96;46.36;93145.34;4979348;28;20199;-71
2022/06/28 09:06:07;;;;;;;9.63;8.93;;;;;;;27.54;44.54;93159.72;4979562;28;20260;-71
2022/06/28 09:08:32;;;;;;;10.70;9.90;;;;;;;27.65;44.70;93160.59;4980622;28;20226;-71
2022/06/28 09:10:58;;;;;;;10.45;9.65;;;;;;;27.23;44.92;93152.13;4974639;28;20224;-70
2022/06/28 09:13:24;;;;;;;10.65;9.85;;;;;;;27.67;44.49;93158.31;4981417;28;20185;-71
2022/06/28 09:15:57;;;;;;;10.73;9.80;;;;;;;27.93;42.65;93144.72;4978839;28;20228;-71
2022/06/28 09:18:25;;;;;;;11.40;10.57;;;;;;;27.54;46.79;93154.34;4997279;28;20260;-71
2022/06/28 09:20:54;;;;;;;10.80;9.95;;;;;;;27.81;45.10;93153.84;4985393;28;20237;-73
2022/06/28 09:23:32;;;;;;;9.65;9.05;;;;;;;28.23;42.87;93161.44;5001907;28;20220;-71
2022/06/28 09:26:07;;;;;;;10.55;9.68;;;;;;;28.10;43.46;93146.75;4999085;28;20273;-71
2022/06/28 09:28:38;;;;;;;10.70;9.90;;;;;;;28.30;43.45;93152.66;4996544;28;20195;-72
2022/06/28 09:31:16;;;;;;;10.93;10.10;;;;;;;28.07;45.80;93150.19;4997540;28;20220;-71
2022/06/28 09:33:48;;;;;;;9.40;8.70;;;;;;;28.11;43.78;93142.94;5000091;28;20214;-71
2022/06/28 09:36:18;;;;;;;11.05;10.15;;;;;;;27.87;43.70;93140.81;4998542;28;20257;-71
2022/06/28 09:38:44;;;;;;;10.23;9.40;;;;;;;27.99;42.91;93143.22;4998903;28;20247;-70
2022/06/28 09:41:42;;;;;;;10.13;9.32;;;;;;;28.06;43.61;93149.41;4973143;28;20224;-70
2022/06/28 09:44:07;;;;;;;9.68;9.02;;;;;;;27.92;42.70;93138.56;4968709;28;20268;-70
2022/06/28 09:46:33;;;;;;;10.55;9.68;;;;;;;27.60;41.84;93126.81;4980963;28;20227;-70
2022/06/28 09:49:03;;;;;;;10.65;9.85;;;;;;;27.78;42.22;93140.38;4963970;28;20184;-72
2022/06/28 09:51:31;;;;;;;10.85;9.88;;;;;;;27.71;44.58;93133.03;4984193;28;20232;-69
2022/06/28 09:54:06;;;;;;;9.90;9.30;;;;;;;27.46;44.42;93128.59;4980114;28;20665;-71
2022/06/28 09:56:42;;;;;;;10.73;10.02;;;;;;;26.99;46.08;93118.53;4995516;28;20258;-67
2022/06/28 09:59:09;;;;;;;10.38;9.68;;;;;;;26.50;45.55;93124.13;4979203;28;20251;-70
2022/06/28 10:01:35;;;;;;;9.75;9.00;;;;;;;27.54;44.49;93135.56;4979984;28;20219;-71
2022/06/28 10:04:01;;;;;;;9.68;9.05;;;;;;;27.50;43.49;93138.25;4980323;28;20210;-72
2022/06/28 10:06:28;;;;;;;10.98;10.07;;;;;;;28.13;41.94;93129.91;4981361;28;20330;-72
2022/06/28 10:08:54;;;;;;;11.60;10.63;;;;;;;27.99;42.49;93135.19;4976907;28;20260;-71
2022/06/28 10:11:19;;;;;;;11.43;10.18;;;;;;;27.94;45.78;93114.03;4977694;28;20292;-71
2022/06/28 10:16:34;;;;;;;11.23;10.23;;;;;;;28.06;42.69;93137.94;4985114;28;20234;-71
2022/06/28 10:19:03;;;;;;;13.00;10.23;;;;;;;28.27;42.08;93125.38;4994844;28;20194;-72
2022/06/28 10:22:01;;;;;;;13.70;12.35;;;;;;;28.17;43.68;93118.03;4988174;28;20224;-72
2022/06/28 10:24:51;;;;;;;9.90;9.20;;;;;;;27.94;42.04;93124.78;4955959;28;20210;-71
2022/06/28 10:27:17;;;;;;;10.10;9.10;;;;;;;28.01;42.79;93125.63;4977356;28;20230;-74
2022/06/28 10:29:57;;;;;;;9.55;8.93;;;;;;;28.28;44.08;93121.53;5005513;28;20183;-72
2022/06/28 10:32:50;;;;;;;10.13;9.43;;;;;;;28.73;40.88;93114.88;5005946;28;20239;-70
2022/06/28 10:35:31;;;;;;;9.68;9.00;;;;;;;28.84;42.13;93121.03;4978370;28;20223;-71
2022/06/28 10:38:08;;;;;;;10.27;9.18;;;;;;;28.17;41.08;93117.28;4988217;28;20231;-72
2022/06/28 10:40:47;;;;;;;9.73;9.00;;;;;;;28.31;40.88;93120.03;4987587;28;20216;-71
2022/06/28 10:43:13;;;;;;;10.30;9.38;;;;;;;28.16;40.72;93115.72;5003071;28;20206;-70
2022/06/28 10:46:02;;;;;;;9.82;9.00;;;;;;;27.97;42.42;93107.94;5004116;28;20247;-69
2022/06/28 10:48:28;;;;;;;9.52;8.80;;;;;;;27.86;43.17;93107.84;5005254;28;20202;-70
2022/06/28 10:50:59;;;;;;;10.50;9.75;;;;;;;27.88;41.88;93113.63;5003685;28;20226;-71
2022/06/28 10:53:28;;;;;;;10.55;9.65;;;;;;;27.88;43.51;93099.44;5004765;28;20210;-71
2022/06/28 10:56:12;;;;;;;8.85;8.35;;;;;;;28.86;40.06;93113.38;5001921;28;20234;-71
2022/06/28 10:58:59;;;;;;;10.38;9.57;;;;;;;28.75;41.16;93112.56;5003185;28;20191;-71
2022/06/28 11:01:40;;;;;;;9.90;9.13;;;;;;;29.22;39.25;93106.19;5002271;28;20237;-71
2022/06/28 11:04:18;;;;;;;10.35;9.43;;;;;;;28.97;41.47;93089.19;5003341;28;20185;-71
2022/06/28 11:06:46;;;;;;;9.98;9.02;;;;;;;28.58;39.48;93070.28;5002760;28;20334;-71
2022/06/28 11:09:48;;;;;;;9.57;8.95;;;;;;;28.46;41.75;93081.34;5003090;28;20187;-71
2022/06/28 11:12:18;;;;;;;10.82;10.02;;;;;;;28.45;42.19;93079.03;5003838;28;20231;-71
2022/06/28 11:14:43;;;;;;;9.95;8.98;;;;;;;28.79;41.03;93083.03;5007605;28;20192;-71
2022/06/28 11:17:33;;;;;;;9.95;9.27;;;;;;;28.80;41.57;93073.78;5004601;28;21093;-71
2022/06/28 11:20:02;;;;;;;10.45;9.55;;;;;;;27.70;42.11;93066.31;5005058;28;20207;-71
2022/06/28 11:22:33;;;;;;;9.25;8.65;;;;;;;28.07;42.75;93058.91;5000721;28;20258;-71
2022/06/28 11:25:01;;;;;;;9.25;8.55;;;;;;;28.95;40.45;93084.19;5004328;28;20194;-71
2022/06/28 11:27:27;;;;;;;10.52;9.75;;;;;;;27.89;42.38;93074.16;5002337;28;20702;-71
2022/06/28 11:29:55;;;;;;;9.88;9.25;;;;;;;28.00;42.22;93086.47;5003663;28;20193;-71
2022/06/28 11:32:26;;;;;;;9.75;9.05;;;;;;;27.63;43.57;93082.34;5007261;28;20227;-71
2022/06/28 11:34:58;;;;;;;9.23;8.63;;;;;;;27.46;44.79;93083.78;5002276;28;20192;-71